Sunday, October 21, 2018, 7:08 AM EDT
Back to Local

K1V4, St Johnsbury Fairbanks

Location: Saint Johnsbury, VT, United States Lat: 44.417
Local Time: 7:08 AM EDT (11:08 GMT) Lon: -72.017
Time Zone: US/Eastern Elev: 695 ft

Show me the last for .
Show Coded

Time T Td Feel RH Dir Speed Gust Alt SLP Vis Weather Sky Remarks
2018-10-21 06:54 37 28 - 69 - - - 29.72 29.73 0 None
2018-10-21 05:54 38 29 - 69 - - - 29.69 29.70 0 None
2018-10-21 04:54 37 31 - 78 - - - 29.67 29.68 0 None
2018-10-21 03:54 39 31 - 72 - - - 29.65 29.65 0 None
2018-10-21 02:54 35 33 - 92 - - - 29.63 29.64 0 None
2018-10-21 01:54 35 33 - 92 - - - 29.62 29.62 0 6-hr Min Temp (2am): 35.1°F
6-hr Max Temp (2am): 45.0°F
2018-10-21 00:54 35 33 - 92 - - - 29.61 29.61 0 24-hr Min Temp (1am): 35.1°F
24-hr Max Temp (1am): 61.0°F
2018-10-20 23:54 37 33 - 85 - - - 29.59 29.60 0 None
2018-10-20 22:54 39 33 - 79 - - - 29.59 29.59 0 None
2018-10-20 21:54 42 34 - 72 - - - 29.57 29.58 0 None
2018-10-20 20:54 42 33 - 70 - - - 29.54 29.55 0 None
2018-10-20 19:54 45 33 - 62 - - - 29.54 29.54 0 6-hr Min Temp (8pm): 44.1°F
6-hr Max Temp (8pm): 61.0°F
2018-10-20 18:54 48 31 - 51 - - - 29.52 29.52 0 None
2018-10-20 17:54 55 26 - 32 - - - 29.49 29.49 0 None
2018-10-20 16:54 57 28 - 32 - - - 29.49 29.48 0 None
2018-10-20 15:54 57 27 - 31 - - - 29.48 29.47 0 None
2018-10-20 14:54 60 29 - 30 - - - 29.47 29.46 0 None
2018-10-20 13:54 60 32 - 34 - - - 29.48 29.47 0 6-hr Min Temp (2pm): 50.0°F
6-hr Max Temp (2pm): 60.1°F
2018-10-20 12:54 59 35 - 40 - - - 29.49 29.48 0 None
2018-10-20 11:54 58 38 - 47 - - - 29.50 29.49 0 None
2018-10-20 10:54 53 42 - 66 - - - 29.51 29.51 0 None
2018-10-20 09:54 51 41 - 68 - - - 29.51 29.50 0 None
2018-10-20 08:54 50 41 - 71 - - - 29.51 29.51 0 None
2018-10-20 07:54 50 39 - 65 - - - 29.50 29.50 0 6-hr Min Temp (8am): 50.0°F
6-hr Max Temp (8am): 51.1°F

Support USWX by starting your Amazon purchase here.